createdAt,value
2022-10-09T00:02:39.332Z,66.02
2022-10-09T00:05:45.261Z,66.11
2022-10-09T00:08:52.550Z,65.89
2022-10-09T00:12:00.978Z,65.79
2022-10-09T00:15:09.448Z,66.64
2022-10-09T00:18:18.519Z,66.58
2022-10-09T00:21:28.074Z,66.78
2022-10-09T00:24:33.712Z,66.96
2022-10-09T00:27:42.044Z,66.66
2022-10-09T00:30:47.838Z,66.86
2022-10-09T00:33:54.037Z,66.61
2022-10-09T00:36:59.918Z,66.61
2022-10-09T00:40:11.056Z,66.76
2022-10-09T00:43:40.818Z,66.42
2022-10-09T00:46:55.296Z,66.05
2022-10-09T00:50:08.282Z,66.79
2022-10-09T00:53:22.718Z,66.42
2022-10-09T00:56:30.610Z,66.67
2022-10-09T00:59:40.641Z,66.56
2022-10-09T01:02:47.227Z,66.74
2022-10-09T01:06:05.832Z,67.28
2022-10-09T01:09:22.263Z,67.63
2022-10-09T01:12:44.912Z,68.03
2022-10-09T01:16:08.376Z,67.71
2022-10-09T01:19:53.228Z,68.12
2022-10-09T01:23:46.330Z,68.08
2022-10-09T01:27:13.820Z,68.48
2022-10-09T01:30:25.153Z,68.11
2022-10-09T01:33:34.222Z,68.66
2022-10-09T01:36:43.416Z,69.24
2022-10-09T01:39:52.396Z,69.26
2022-10-09T01:43:09.343Z,69.70
2022-10-09T01:46:26.373Z,69.66
2022-10-09T01:49:46.401Z,69.85
2022-10-09T01:52:57.460Z,69.48
2022-10-09T01:56:14.727Z,69.92
2022-10-09T01:59:33.955Z,69.62
2022-10-09T02:02:43.971Z,69.57
2022-10-09T02:05:56.322Z,69.57
2022-10-09T02:09:07.801Z,70.05
2022-10-09T02:12:18.960Z,69.59
2022-10-09T02:15:37.986Z,70.02
2022-10-09T02:18:49.048Z,70.12
2022-10-09T02:22:08.112Z,70.24
2022-10-09T02:25:20.021Z,70.25
2022-10-09T02:28:26.439Z,70.45
2022-10-09T02:31:41.619Z,71.11
2022-10-09T02:34:48.279Z,70.92
2022-10-09T02:37:54.107Z,70.75
2022-10-09T02:41:02.399Z,71.29
2022-10-09T02:44:10.872Z,71.18
2022-10-09T02:47:19.399Z,71.05
2022-10-09T02:50:25.170Z,71.08
2022-10-09T02:53:31.217Z,71.24
2022-10-09T02:56:39.152Z,71.01
2022-10-09T02:59:45.086Z,70.60
2022-10-09T03:02:53.873Z,70.77
2022-10-09T03:06:04.632Z,70.73
2022-10-09T03:09:10.329Z,71.15
2022-10-09T03:12:21.358Z,71.46
2022-10-09T03:15:27.138Z,71.66
2022-10-09T03:18:35.541Z,71.00
2022-10-09T03:21:41.407Z,71.13
2022-10-09T03:24:47.197Z,71.49
2022-10-09T03:27:53.146Z,71.51
2022-10-09T03:30:59.444Z,71.16
2022-10-09T03:34:07.754Z,71.20
2022-10-09T03:37:13.466Z,71.63
2022-10-09T03:40:19.468Z,71.34
2022-10-09T03:43:25.169Z,71.54
2022-10-09T03:46:31.033Z,71.39
2022-10-09T03:49:39.450Z,71.48
2022-10-09T03:52:45.734Z,71.86
2022-10-09T03:55:51.732Z,71.53
2022-10-09T03:58:57.688Z,72.02
2022-10-09T04:02:03.443Z,71.72
2022-10-09T04:05:12.682Z,71.74
2022-10-09T04:08:18.949Z,71.41
2022-10-09T04:11:24.720Z,71.37
2022-10-09T04:14:30.574Z,71.60
2022-10-09T04:17:36.480Z,71.29
2022-10-09T04:20:48.269Z,71.33
2022-10-09T04:23:54.797Z,70.99
2022-10-09T04:27:00.462Z,70.93
2022-10-09T04:30:11.211Z,71.23
2022-10-09T04:33:17.074Z,71.23
2022-10-09T04:36:25.699Z,71.57
2022-10-09T04:39:31.461Z,71.03
2022-10-09T04:42:37.159Z,71.39
2022-10-09T04:45:44.617Z,71.40
2022-10-09T04:48:50.771Z,71.25
2022-10-09T04:51:59.142Z,71.56
2022-10-09T04:55:04.949Z,71.37
2022-10-09T04:58:11.738Z,71.05
2022-10-09T05:01:22.003Z,71.35
2022-10-09T05:04:30.815Z,71.06
2022-10-09T05:07:39.292Z,71.40
2022-10-09T05:10:45.093Z,71.06
2022-10-09T05:13:58.273Z,71.45
2022-10-09T05:17:14.612Z,70.52
2022-10-09T05:20:20.948Z,71.21
2022-10-09T05:23:30.409Z,70.30
2022-10-09T05:26:36.098Z,70.25
2022-10-09T05:29:44.979Z,69.77
2022-10-09T05:32:50.878Z,69.54
2022-10-09T05:36:00.339Z,68.86
2022-10-09T05:39:08.746Z,68.82
2022-10-09T05:42:14.703Z,68.64
2022-10-09T05:45:23.071Z,68.99
2022-10-09T05:48:28.913Z,69.36
2022-10-09T05:51:37.911Z,69.35
2022-10-09T05:54:46.272Z,69.26
2022-10-09T05:57:52.258Z,68.80
2022-10-09T06:01:03.593Z,69.86
2022-10-09T06:04:14.715Z,69.28
2022-10-09T06:07:20.518Z,69.08
2022-10-09T06:10:32.264Z,69.47
2022-10-09T06:13:38.314Z,69.62
2022-10-09T06:16:46.971Z,69.59
2022-10-09T06:19:52.757Z,69.43
2022-10-09T06:22:58.564Z,69.69
2022-10-09T06:26:09.768Z,69.09
2022-10-09T06:29:15.392Z,69.43
2022-10-09T06:32:20.966Z,68.76
2022-10-09T06:35:26.789Z,68.32
2022-10-09T06:38:33.183Z,68.04
2022-10-09T06:41:41.476Z,68.10
2022-10-09T06:45:02.601Z,67.65
2022-10-09T06:48:08.570Z,67.92
2022-10-09T06:51:17.509Z,67.65
2022-10-09T06:54:23.150Z,67.34
2022-10-09T06:57:31.429Z,66.95
2022-10-09T07:00:37.054Z,67.35
2022-10-09T07:03:45.692Z,67.17
2022-10-09T07:06:51.327Z,66.49
2022-10-09T07:09:57.032Z,66.59
2022-10-09T07:13:05.348Z,65.76
2022-10-09T07:16:12.836Z,65.06
2022-10-09T07:19:21.977Z,64.23
2022-10-09T07:22:27.693Z,64.10
2022-10-09T07:25:33.305Z,62.80
2022-10-09T07:28:42.517Z,62.18
2022-10-09T07:31:48.485Z,62.29
2022-10-09T07:34:54.119Z,62.41
2022-10-09T07:37:59.763Z,62.30
2022-10-09T07:41:08.078Z,61.88
2022-10-09T07:44:16.405Z,60.89
2022-10-09T07:47:22.019Z,60.76
2022-10-09T07:50:31.137Z,59.64
2022-10-09T07:53:36.786Z,56.84
2022-10-09T07:56:43.146Z,56.24
2022-10-09T07:59:51.326Z,54.22
2022-10-09T08:02:56.903Z,54.76
2022-10-09T08:06:02.932Z,52.15
2022-10-09T08:09:11.078Z,51.81
2022-10-09T08:12:16.982Z,47.94
2022-10-09T08:15:33.369Z,45.40
2022-10-09T08:18:42.282Z,43.47
2022-10-09T08:21:47.859Z,42.04
2022-10-09T08:24:53.517Z,42.51
2022-10-09T08:27:59.465Z,42.80
2022-10-09T08:31:14.560Z,40.10
2022-10-09T08:34:20.557Z,40.87
2022-10-09T08:37:26.148Z,38.42
2022-10-09T08:40:48.103Z,36.37
2022-10-09T08:44:05.090Z,35.79
2022-10-09T08:47:30.082Z,34.79
2022-10-09T08:50:41.326Z,36.08
2022-10-09T08:54:08.373Z,34.55
2022-10-09T08:57:18.649Z,36.42
2022-10-09T09:00:27.301Z,36.34
2022-10-09T09:04:08.227Z,37.89
2022-10-09T09:07:30.944Z,40.44
2022-10-09T09:10:54.635Z,39.90
2022-10-09T09:14:22.952Z,38.90
2022-10-09T09:17:48.244Z,38.29
2022-10-09T09:21:05.879Z,38.25
2022-10-09T09:24:20.504Z,37.44
2022-10-09T09:27:34.436Z,38.90
2022-10-09T09:30:55.626Z,38.76
2022-10-09T09:34:16.865Z,38.56
2022-10-09T09:37:26.409Z,36.17
2022-10-09T09:40:38.554Z,35.79
2022-10-09T09:43:45.470Z,35.99
2022-10-09T09:46:52.459Z,34.53
2022-10-09T09:50:28.553Z,35.38
2022-10-09T09:53:46.423Z,32.59
2022-10-09T09:57:18.166Z,31.69
2022-10-09T10:00:27.043Z,32.18
2022-10-09T10:03:42.687Z,34.47
2022-10-09T10:06:48.475Z,35.34
2022-10-09T10:10:14.863Z,35.06
2022-10-09T10:13:29.667Z,35.38
2022-10-09T10:16:41.536Z,37.25
2022-10-09T10:19:54.139Z,36.01
2022-10-09T10:23:02.949Z,32.75
2022-10-09T10:26:37.500Z,32.39
2022-10-09T10:29:49.842Z,30.90
2022-10-09T10:33:06.834Z,31.04
2022-10-09T10:36:14.795Z,29.64
2022-10-09T10:39:34.703Z,30.53
2022-10-09T10:42:59.220Z,30.84
2022-10-09T10:46:18.521Z,32.32
2022-10-09T10:49:28.390Z,31.70
2022-10-09T10:53:18.559Z,32.56
2022-10-09T10:56:34.426Z,32.73
2022-10-09T11:00:00.559Z,32.57
2022-10-09T11:03:40.161Z,31.41
2022-10-09T11:07:03.071Z,33.50
2022-10-09T11:10:25.690Z,35.03
2022-10-09T11:13:39.545Z,36.25
2022-10-09T11:17:11.160Z,35.91
2022-10-09T11:20:59.930Z,35.37
2022-10-09T11:24:37.003Z,34.00
2022-10-09T11:27:55.650Z,35.18
2022-10-09T11:31:14.229Z,35.65
2022-10-09T11:34:33.965Z,37.57
2022-10-09T11:37:47.123Z,39.08
2022-10-09T11:40:53.749Z,37.42
2022-10-09T11:44:36.297Z,35.80
2022-10-09T11:47:54.431Z,35.40
2022-10-09T11:51:15.646Z,34.72
2022-10-09T11:54:27.772Z,34.13
2022-10-09T11:57:35.342Z,34.26
2022-10-09T12:00:41.345Z,33.42
2022-10-09T12:03:47.441Z,34.05
2022-10-09T12:07:00.555Z,34.39
2022-10-09T12:10:23.218Z,32.50
2022-10-09T12:13:54.845Z,31.31
2022-10-09T12:17:02.577Z,32.31
2022-10-09T12:20:20.262Z,32.27
2022-10-09T12:23:38.054Z,32.56
2022-10-09T12:26:44.755Z,33.34
2022-10-09T12:29:58.425Z,32.57
2022-10-09T12:33:24.168Z,33.04
2022-10-09T12:36:34.357Z,34.41
2022-10-09T12:39:43.118Z,36.21
2022-10-09T12:42:51.965Z,37.18
2022-10-09T12:45:58.643Z,38.07
2022-10-09T12:49:09.138Z,38.80
2022-10-09T12:52:19.274Z,36.99
2022-10-09T12:55:32.533Z,37.43
2022-10-09T12:58:42.152Z,35.89
2022-10-09T13:01:50.818Z,34.75
2022-10-09T13:05:03.712Z,34.63
2022-10-09T13:08:26.885Z,33.75
2022-10-09T13:11:40.670Z,33.76
2022-10-09T13:14:55.496Z,34.26
2022-10-09T13:18:01.785Z,35.45
2022-10-09T13:21:24.926Z,35.68
2022-10-09T13:24:30.732Z,36.20
2022-10-09T13:27:43.545Z,36.27
2022-10-09T13:30:49.356Z,36.70
2022-10-09T13:33:55.200Z,36.74
2022-10-09T13:37:00.878Z,37.23
2022-10-09T13:40:08.898Z,37.59
2022-10-09T13:43:26.805Z,38.88
2022-10-09T13:46:32.386Z,39.69
2022-10-09T13:49:37.997Z,39.51
2022-10-09T13:52:43.543Z,39.46
2022-10-09T13:55:58.459Z,39.64
2022-10-09T13:59:09.298Z,37.93
2022-10-09T14:02:15.218Z,38.96
2022-10-09T14:05:21.783Z,41.00
2022-10-09T14:08:27.346Z,41.29
2022-10-09T14:11:34.008Z,40.24
2022-10-09T14:14:42.227Z,40.31
2022-10-09T14:17:48.228Z,41.06
2022-10-09T14:20:54.186Z,41.33
2022-10-09T14:24:02.864Z,41.68
2022-10-09T14:27:08.981Z,42.06
2022-10-09T14:30:18.764Z,41.94
2022-10-09T14:33:24.381Z,42.52
2022-10-09T14:36:31.861Z,42.80
2022-10-09T14:39:37.454Z,41.96
2022-10-09T14:42:43.878Z,42.02
2022-10-09T14:45:52.138Z,41.34
2022-10-09T14:49:00.169Z,41.72
2022-10-09T14:52:09.818Z,41.72
2022-10-09T14:55:15.557Z,41.84
2022-10-09T14:58:21.266Z,42.28
2022-10-09T15:01:33.106Z,41.56
2022-10-09T15:04:38.930Z,41.14
2022-10-09T15:07:44.645Z,41.05
2022-10-09T15:10:52.966Z,40.90
2022-10-09T15:13:59.331Z,40.29
2022-10-09T15:17:07.982Z,40.58
2022-10-09T15:20:13.724Z,40.80
2022-10-09T15:23:24.176Z,41.15
2022-10-09T15:26:36.485Z,40.99
2022-10-09T15:29:42.404Z,41.40
2022-10-09T15:32:50.671Z,41.13
2022-10-09T15:35:57.038Z,41.34
2022-10-09T15:39:06.079Z,41.21
2022-10-09T15:42:11.867Z,42.41
2022-10-09T15:45:17.862Z,42.92
2022-10-09T15:48:28.065Z,43.42
2022-10-09T15:51:47.383Z,44.24
2022-10-09T15:54:56.320Z,44.57
2022-10-09T15:58:05.001Z,44.91
2022-10-09T16:01:14.366Z,45.36
2022-10-09T16:04:22.586Z,46.50
2022-10-09T16:07:28.276Z,47.25
2022-10-09T16:10:58.798Z,47.40
2022-10-09T16:14:09.604Z,48.37
2022-10-09T16:17:15.191Z,48.68
2022-10-09T16:20:23.760Z,48.40
2022-10-09T16:23:29.573Z,50.31
2022-10-09T16:26:35.272Z,50.77
2022-10-09T16:29:47.619Z,51.96
2022-10-09T16:32:59.292Z,52.75
2022-10-09T16:36:16.408Z,52.51
2022-10-09T16:39:23.784Z,54.31
2022-10-09T16:42:29.599Z,55.38
2022-10-09T16:45:35.409Z,55.46
2022-10-09T16:48:47.645Z,56.73
2022-10-09T16:51:57.240Z,56.87
2022-10-09T16:55:02.955Z,57.55
2022-10-09T16:58:08.650Z,57.97
2022-10-09T17:01:16.482Z,58.71
2022-10-09T17:04:22.243Z,59.51
2022-10-09T17:07:30.650Z,59.72
2022-10-09T17:10:39.180Z,60.70
2022-10-09T17:13:45.499Z,60.82
2022-10-09T17:16:52.436Z,60.78
2022-10-09T17:19:58.221Z,61.74
2022-10-09T17:23:07.288Z,62.15
2022-10-09T17:26:17.369Z,62.47
2022-10-09T17:29:24.131Z,62.94
2022-10-09T17:32:29.879Z,63.24
2022-10-09T17:35:35.786Z,63.16
2022-10-09T17:38:43.989Z,63.62
2022-10-09T17:41:51.458Z,63.57
2022-10-09T17:44:57.152Z,64.00
2022-10-09T17:48:08.250Z,64.10
2022-10-09T17:51:20.153Z,64.34
2022-10-09T17:54:28.382Z,64.88
2022-10-09T17:57:33.940Z,65.40
2022-10-09T18:00:40.654Z,66.14
2022-10-09T18:03:47.816Z,66.35
2022-10-09T18:06:55.692Z,66.31
2022-10-09T18:10:03.986Z,66.39
2022-10-09T18:13:16.152Z,67.01
2022-10-09T18:16:35.299Z,67.34
2022-10-09T18:19:41.618Z,67.34
2022-10-09T18:22:47.242Z,67.60
2022-10-09T18:25:55.437Z,67.62
2022-10-09T18:29:02.296Z,67.73
2022-10-09T18:32:08.697Z,67.68
2022-10-09T18:35:14.284Z,67.96
2022-10-09T18:38:19.984Z,68.20
2022-10-09T18:41:28.181Z,67.75
2022-10-09T18:44:41.598Z,67.88
2022-10-09T18:47:50.290Z,67.19
2022-10-09T18:50:56.151Z,66.51
2022-10-09T18:54:13.279Z,66.40
2022-10-09T18:57:29.118Z,64.70
2022-10-09T19:00:37.226Z,64.77
2022-10-09T19:03:46.026Z,64.16
2022-10-09T19:06:57.279Z,64.15
2022-10-09T19:10:03.659Z,63.77
2022-10-09T19:13:12.210Z,64.06
2022-10-09T19:16:17.870Z,63.57
2022-10-09T19:19:23.684Z,63.61
2022-10-09T19:22:34.492Z,63.54
2022-10-09T19:25:40.125Z,64.10
2022-10-09T19:28:48.972Z,63.62
2022-10-09T19:31:55.430Z,64.19
2022-10-09T19:35:01.053Z,63.92
2022-10-09T19:38:06.706Z,64.14
2022-10-09T19:41:15.563Z,64.07
2022-10-09T19:44:24.028Z,64.00
2022-10-09T19:47:29.983Z,64.10
2022-10-09T19:50:36.795Z,64.25
2022-10-09T19:53:43.659Z,64.36
2022-10-09T19:56:49.456Z,64.80
2022-10-09T19:59:57.756Z,64.51
2022-10-09T20:03:07.792Z,64.97
2022-10-09T20:06:16.215Z,64.75
2022-10-09T20:09:21.933Z,65.17
2022-10-09T20:12:28.025Z,64.92
2022-10-09T20:15:36.295Z,64.97
2022-10-09T20:18:43.584Z,64.84
2022-10-09T20:21:51.413Z,64.89
2022-10-09T20:24:57.208Z,65.03
2022-10-09T20:28:02.758Z,65.36
2022-10-09T20:31:16.540Z,65.73
2022-10-09T20:34:29.496Z,66.13
2022-10-09T20:37:35.145Z,66.27
2022-10-09T20:40:42.988Z,67.04
2022-10-09T20:43:54.784Z,67.01
2022-10-09T20:47:03.276Z,67.27
2022-10-09T20:50:11.917Z,67.68
2022-10-09T20:53:20.177Z,67.60
2022-10-09T20:56:28.057Z,68.45
2022-10-09T20:59:33.648Z,68.80
2022-10-09T21:02:45.788Z,69.22
2022-10-09T21:05:51.383Z,69.08
2022-10-09T21:08:56.964Z,69.65
2022-10-09T21:12:02.808Z,70.05
2022-10-09T21:15:10.734Z,70.20
2022-10-09T21:18:25.314Z,70.08
2022-10-09T21:21:32.822Z,69.57
2022-10-09T21:24:38.492Z,69.65
2022-10-09T21:27:44.115Z,69.97
2022-10-09T21:30:57.374Z,69.32
2022-10-09T21:34:08.043Z,69.54
2022-10-09T21:37:21.464Z,69.53
2022-10-09T21:40:27.964Z,69.57
2022-10-09T21:43:33.935Z,69.58
2022-10-09T21:46:41.995Z,69.68
2022-10-09T21:49:50.527Z,69.91
2022-10-09T21:52:56.410Z,70.31
2022-10-09T21:56:02.135Z,70.19
2022-10-09T21:59:08.709Z,70.76
2022-10-09T22:02:14.403Z,70.84
2022-10-09T22:05:22.727Z,71.12
2022-10-09T22:08:29.348Z,71.32
2022-10-09T22:11:35.018Z,71.11
2022-10-09T22:14:40.769Z,71.58
2022-10-09T22:17:46.417Z,71.67
2022-10-09T22:20:55.573Z,71.57
2022-10-09T22:24:02.989Z,71.71
2022-10-09T22:27:18.117Z,72.15
2022-10-09T22:30:23.783Z,72.39
2022-10-09T22:33:29.471Z,72.07
2022-10-09T22:36:37.803Z,72.04
2022-10-09T22:39:43.469Z,71.91
2022-10-09T22:42:49.571Z,71.82
2022-10-09T22:45:55.312Z,72.05
2022-10-09T22:49:03.802Z,71.96
2022-10-09T22:52:11.967Z,71.79
2022-10-09T22:55:17.894Z,71.59
2022-10-09T22:58:23.481Z,71.33
2022-10-09T23:01:35.353Z,71.29
2022-10-09T23:04:41.047Z,71.44
2022-10-09T23:07:50.087Z,71.12
2022-10-09T23:10:55.649Z,70.94
2022-10-09T23:14:03.167Z,70.92
2022-10-09T23:17:08.762Z,70.64
2022-10-09T23:20:14.550Z,70.62
2022-10-09T23:23:22.791Z,70.58
2022-10-09T23:26:35.255Z,70.83
2022-10-09T23:29:41.889Z,70.96
2022-10-09T23:32:47.549Z,70.89
2022-10-09T23:35:53.283Z,71.14
2022-10-09T23:39:03.818Z,71.16
2022-10-09T23:42:09.468Z,71.41
2022-10-09T23:45:15.175Z,72.11
2022-10-09T23:48:21.056Z,72.19
2022-10-09T23:51:28.797Z,72.22
2022-10-09T23:54:36.947Z,72.31
2022-10-09T23:57:42.574Z,72.43
